Time;durP1;ratioP1;P1;durP2;ratioP2;P2;SDS_P1;SDS_P2;PMS_P1;PMS_P2;Temp;Humidity;BMP_temperature;BMP_pressure;BME280_temperature;BME280_humidity;BME280_pressure;Samples;Min_cycle;Max_cycle;Signal;HPM_P1;HPM_P2
2022/10/15 00:01:30;;;;;;;60.20;37.90;;;;;;;9.37;88.65;100480.81;88803;1296;22018;-75
2022/10/15 00:03:41;;;;;;;54.40;34.90;;;;;;;9.34;88.73;100477.41;88596;1304;22059;-75
2022/10/15 00:05:49;;;;;;;50.70;35.80;;;;;;;9.30;88.72;100478.23;88595;1304;22012;-75
2022/10/15 00:07:58;;;;;;;54.70;36.80;;;;;;;9.28;89.02;100477.42;88597;1304;22041;-75
2022/10/15 00:10:08;;;;;;;55.10;37.50;;;;;;;9.26;89.12;100475.02;88806;1296;22032;-75
2022/10/15 00:12:16;;;;;;;57.40;37.00;;;;;;;9.24;89.04;100474.58;88625;1304;22068;-75
2022/10/15 00:14:25;;;;;;;51.20;36.60;;;;;;;9.21;88.97;100476.07;88825;1292;22016;-75
2022/10/15 00:16:34;;;;;;;53.10;34.60;;;;;;;9.16;88.84;100476.23;88615;1298;22504;-75
2022/10/15 00:18:43;;;;;;;54.40;38.70;;;;;;;9.12;88.96;100472.19;88718;1298;22100;-75
2022/10/15 00:20:51;;;;;;;52.20;35.80;;;;;;;9.09;89.07;100466.88;88837;1296;22010;-75
2022/10/15 00:23:00;;;;;;;63.40;38.10;;;;;;;9.06;89.15;100468.52;88768;1297;22616;-75
2022/10/15 00:25:10;;;;;;;51.70;37.30;;;;;;;9.03;89.08;100468.26;88774;1297;22027;-75
2022/10/15 00:27:17;;;;;;;;;;;;;;;8.99;89.25;100462.28;88764;1297;22268;-75
2022/10/15 00:29:26;;;;;;;50.70;34.80;;;;;;;8.94;89.35;100465.77;88530;1297;22076;-75
2022/10/15 00:31:35;;;;;;;57.90;37.40;;;;;;;8.92;89.45;100460.77;88767;1297;22701;-75
2022/10/15 00:33:44;;;;;;;57.10;37.20;;;;;;;8.88;89.29;100458.61;88537;1298;22797;-75
2022/10/15 00:36:01;;;;;;;59.20;37.90;;;;;;;8.85;89.28;100457.33;88508;1285;22065;-75
2022/10/15 00:38:10;;;;;;;53.50;35.20;;;;;;;8.82;89.50;100458.63;88730;1298;22080;-75
2022/10/15 00:40:20;;;;;;;59.90;38.40;;;;;;;8.81;89.60;100461.10;88756;1288;22027;-75
2022/10/15 00:42:29;;;;;;;55.20;37.20;;;;;;;8.79;89.82;100459.77;88743;1286;22084;-75
2022/10/15 00:44:56;;;;;;;59.90;38.70;;;;;;;8.78;90.00;100451.95;88530;1306;22517;-75
2022/10/15 00:47:09;;;;;;;55.00;37.70;;;;;;;8.76;90.07;100452.52;88527;1298;22072;-75
2022/10/15 00:49:20;;;;;;;53.60;36.60;;;;;;;8.76;90.18;100450.64;88532;1305;22083;-75
2022/10/15 00:51:31;;;;;;;55.60;38.30;;;;;;;8.74;90.02;100451.19;88740;1299;22010;-75
2022/10/15 00:53:40;;;;;;;58.70;38.60;;;;;;;8.72;90.13;100447.96;88763;1286;22020;-75
2022/10/15 00:55:49;;;;;;;60.40;39.30;;;;;;;8.70;90.32;100449.41;88519;1305;22112;-75
2022/10/15 00:58:00;;;;;;;67.10;41.30;;;;;;;8.69;90.39;100447.70;88755;1283;22087;-75
2022/10/15 01:00:14;;;;;;;69.10;40.80;;;;;;;8.69;90.71;100444.77;88750;1288;22046;-75
2022/10/15 01:02:23;;;;;;;62.90;38.40;;;;;;;8.70;90.79;100442.29;88541;1306;22078;-75
2022/10/15 01:04:32;;;;;;;59.30;39.20;;;;;;;8.71;91.03;100442.96;88530;1298;22056;-75
2022/10/15 01:06:42;;;;;;;65.60;41.70;;;;;;;8.71;91.04;100443.65;88524;1289;22080;-75
2022/10/15 01:08:51;;;;;;;67.20;41.90;;;;;;;8.71;91.28;100442.59;88555;1306;22075;-75
2022/10/15 01:11:08;;;;;;;65.10;42.10;;;;;;;8.72;91.62;100438.92;88645;1299;22088;-75
2022/10/15 01:13:21;;;;;;;61.20;40.80;;;;;;;8.73;91.65;100436.11;88530;1305;22067;-75
2022/10/15 01:15:35;;;;;;;65.10;42.60;;;;;;;8.74;91.70;100435.55;88544;1305;22082;-75
2022/10/15 01:17:47;;;;;;;59.70;40.90;;;;;;;8.75;91.64;100434.64;88538;1306;22068;-75
2022/10/15 01:20:49;;;;;;;59.10;40.10;;;;;;;8.74;91.86;100436.58;88557;1298;22673;-75
2022/10/15 01:23:09;;;;;;;60.10;39.30;;;;;;;8.73;91.52;100438.88;88544;1298;22712;-76
2022/10/15 01:25:28;;;;;;;59.50;40.50;;;;;;;8.72;91.70;100436.66;88731;1285;22071;-76
2022/10/15 01:27:40;;;;;;;61.20;39.30;;;;;;;8.70;91.62;100440.17;88551;1297;22086;-75
2022/10/15 01:30:21;;;;;;;57.50;41.10;;;;;;;8.69;91.50;100435.70;88626;1284;22706;-75
2022/10/15 01:32:32;;;;;;;60.70;41.40;;;;;;;8.64;91.38;100430.80;88527;1306;22068;-74
2022/10/15 01:34:43;;;;;;;68.80;41.60;;;;;;;8.61;91.37;100430.53;88774;1299;22060;-75
2022/10/15 01:36:57;;;;;;;62.20;42.00;;;;;;;8.60;91.72;100427.27;88723;1290;22034;-75
2022/10/15 01:39:10;;;;;;;71.40;42.20;;;;;;;8.59;92.01;100429.55;88762;1287;22031;-75
2022/10/15 01:41:22;;;;;;;70.80;43.40;;;;;;;8.60;92.01;100437.71;88547;1301;22115;-75
2022/10/15 01:43:35;;;;;;;61.90;42.50;;;;;;;8.59;91.78;100429.23;88559;1299;22064;-75
2022/10/15 01:45:46;;;;;;;63.90;38.80;;;;;;;8.57;91.84;100429.98;88782;1298;22037;-75
2022/10/15 01:47:56;;;;;;;64.80;39.90;;;;;;;8.56;91.85;100430.52;88550;1298;22047;-75
2022/10/15 01:50:06;;;;;;;65.90;40.50;;;;;;;8.53;91.67;100425.20;88769;1286;22113;-75
2022/10/15 01:52:17;;;;;;;56.20;39.80;;;;;;;8.50;91.77;100426.15;88565;1305;22049;-75
2022/10/15 01:54:26;;;;;;;64.40;41.40;;;;;;;8.47;91.65;100427.64;88771;1287;22036;-76
2022/10/15 01:56:36;;;;;;;58.90;39.60;;;;;;;8.44;91.57;100423.89;88731;1299;22007;-76
2022/10/15 01:58:45;;;;;;;69.00;43.00;;;;;;;8.40;91.72;100420.52;88533;1299;22082;-75
2022/10/15 02:00:55;;;;;;;60.90;38.70;;;;;;;8.38;91.74;100420.77;88709;1299;22075;-75
2022/10/15 02:03:04;;;;;;;63.90;41.90;;;;;;;8.35;91.68;100420.64;88528;1305;22099;-74
2022/10/15 02:05:15;;;;;;;62.10;41.20;;;;;;;8.33;91.76;100415.14;88751;1299;22741;-74
2022/10/15 02:07:30;;;;;;;62.00;39.40;;;;;;;8.31;91.72;100412.95;88687;1291;22044;-74
2022/10/15 02:09:45;;;;;;;59.40;39.90;;;;;;;8.28;91.91;100414.40;88701;1299;22064;-74
2022/10/15 02:12:03;;;;;;;62.40;40.90;;;;;;;8.27;92.10;100411.64;88466;1298;22058;-75
2022/10/15 02:14:14;;;;;;;68.50;42.20;;;;;;;8.26;92.16;100410.11;88392;1308;22075;-75
2022/10/15 02:16:25;;;;;;;67.90;42.80;;;;;;;8.25;92.15;100406.14;88623;1299;22069;-75
2022/10/15 02:18:38;;;;;;;64.30;43.20;;;;;;;8.24;92.21;100403.41;88693;1287;22085;-74
2022/10/15 02:20:51;;;;;;;67.40;40.50;;;;;;;8.23;92.25;100404.13;88558;1301;22806;-74
2022/10/15 02:23:02;;;;;;;64.30;40.70;;;;;;;8.23;92.40;100402.91;88678;1297;22012;-75
2022/10/15 02:25:13;;;;;;;63.70;40.80;;;;;;;8.23;92.35;100402.05;88553;1291;22691;-75
2022/10/15 02:27:22;;;;;;;63.70;41.10;;;;;;;8.22;92.52;100403.61;88464;1306;22055;-75
2022/10/15 02:29:35;;;;;;;71.60;42.00;;;;;;;8.22;92.91;100396.67;88474;1306;22045;-74
2022/10/15 02:31:45;;;;;;;64.10;43.10;;;;;;;8.23;92.82;100393.35;88443;1306;22028;-74
2022/10/15 02:33:55;;;;;;;71.50;42.40;;;;;;;8.22;92.83;100389.36;88480;1291;22728;-74
2022/10/15 02:36:04;;;;;;;65.60;43.50;;;;;;;8.21;92.92;100384.70;88458;1306;22101;-75
2022/10/15 02:38:13;;;;;;;66.70;44.70;;;;;;;8.22;93.49;100384.33;88445;1301;22049;-75
2022/10/15 02:40:23;;;;;;;66.80;42.40;;;;;;;8.24;93.70;100383.23;88701;1299;22059;-75
2022/10/15 02:42:32;;;;;;;66.90;41.90;;;;;;;8.26;94.04;100385.27;88470;1306;22054;-75
2022/10/15 02:44:41;;;;;;;79.30;44.40;;;;;;;8.26;93.96;100382.48;88624;1299;22689;-75
2022/10/15 02:46:50;;;;;;;66.80;43.00;;;;;;;8.27;93.81;100384.37;88476;1298;22055;-75
2022/10/15 02:48:59;;;;;;;60.10;42.00;;;;;;;8.28;94.05;100384.69;88450;1306;22068;-75
2022/10/15 02:51:07;;;;;;;64.50;42.10;;;;;;;8.28;93.73;100380.34;88676;1280;22662;-75
2022/10/15 02:53:16;;;;;;;70.10;43.00;;;;;;;8.27;93.79;100381.92;88714;1288;22033;-75
2022/10/15 02:55:25;;;;;;;65.00;41.40;;;;;;;8.27;93.69;100384.04;88698;1287;22075;-75
2022/10/15 02:57:34;;;;;;;69.20;42.00;;;;;;;8.25;93.68;100384.23;88684;1291;22044;-75
2022/10/15 02:59:43;;;;;;;64.60;43.20;;;;;;;8.25;93.75;100381.10;88384;1308;22285;-75
2022/10/15 03:01:52;;;;;;;63.90;42.30;;;;;;;8.26;93.74;100381.45;88462;1306;22495;-75
2022/10/15 03:04:01;;;;;;;59.60;39.10;;;;;;;8.25;93.83;100381.83;88452;1299;22106;-75
2022/10/15 03:06:10;;;;;;;72.70;42.60;;;;;;;8.24;93.76;100383.77;88461;1306;22101;-75
2022/10/15 03:08:19;;;;;;;68.90;43.30;;;;;;;8.22;93.62;100379.46;88446;1306;22124;-74
2022/10/15 03:10:28;;;;;;;66.30;42.60;;;;;;;8.22;93.64;100381.56;88672;1298;21988;-74
2022/10/15 03:12:36;;;;;;;64.90;44.40;;;;;;;8.20;93.58;100380.23;88699;1299;22032;-74
2022/10/15 03:14:45;;;;;;;68.10;42.40;;;;;;;8.18;93.59;100382.36;88684;1299;22037;-74
2022/10/15 03:16:54;;;;;;;70.00;41.80;;;;;;;8.17;93.67;100387.95;88489;1306;22175;-75
2022/10/15 03:19:03;;;;;;;64.20;42.00;;;;;;;8.15;93.70;100383.48;88696;1288;22012;-76
2022/10/15 03:21:11;;;;;;;60.50;39.20;;;;;;;8.14;93.59;100386.14;88457;1298;22077;-76
2022/10/15 03:23:20;;;;;;;66.40;40.50;;;;;;;8.11;93.49;100380.12;88634;1299;22157;-75
2022/10/15 03:25:29;;;;;;;60.40;39.70;;;;;;;8.10;93.76;100384.50;88694;1298;22049;-75
2022/10/15 03:27:38;;;;;;;72.80;42.20;;;;;;;8.09;93.73;100385.23;88687;1299;22024;-74
2022/10/15 03:29:46;;;;;;;74.50;43.50;;;;;;;8.07;93.69;100387.20;88689;1299;22059;-74
2022/10/15 03:31:55;;;;;;;63.90;41.30;;;;;;;8.05;93.63;100386.38;88472;1304;22240;-74
2022/10/15 03:34:04;;;;;;;64.80;42.10;;;;;;;8.04;93.80;100383.11;88599;1299;22826;-74
2022/10/15 03:36:13;;;;;;;67.70;42.50;;;;;;;8.03;94.04;100377.58;88696;1299;22058;-74
2022/10/15 03:38:22;;;;;;;65.70;42.20;;;;;;;8.03;94.06;100378.27;88549;1301;22225;-74
2022/10/15 03:40:31;;;;;;;69.80;41.80;;;;;;;8.03;94.09;100380.35;88449;1293;22775;-74
2022/10/15 03:42:39;;;;;;;70.40;42.70;;;;;;;8.04;94.38;100379.98;88450;1306;22050;-74
2022/10/15 03:44:48;;;;;;;69.60;43.00;;;;;;;8.06;94.60;100381.82;88455;1306;22068;-74
2022/10/15 03:46:56;;;;;;;66.50;42.50;;;;;;;8.07;94.69;100381.27;88398;1308;22093;-74
2022/10/15 03:49:05;;;;;;;69.60;43.70;;;;;;;8.08;94.77;100375.34;88527;1302;22077;-74
2022/10/15 03:51:14;;;;;;;64.90;41.80;;;;;;;8.09;94.75;100368.71;88448;1306;22045;-74
2022/10/15 03:53:23;;;;;;;69.80;44.30;;;;;;;8.12;95.11;100365.85;88466;1306;22090;-75
2022/10/15 03:55:32;;;;;;;71.10;45.90;;;;;;;8.15;95.22;100364.04;88548;1302;22660;-75
2022/10/15 03:57:41;;;;;;;65.30;42.50;;;;;;;8.18;95.26;100361.34;88457;1300;22775;-75
2022/10/15 03:59:49;;;;;;;84.10;48.00;;;;;;;8.20;95.37;100356.59;88675;1277;22060;-75
2022/10/15 04:01:58;;;;;;;73.90;45.10;;;;;;;8.24;95.44;100352.14;88460;1306;22103;-75
2022/10/15 04:04:07;;;;;;;70.80;44.10;;;;;;;8.28;95.68;100353.40;88637;1299;22023;-75
2022/10/15 04:06:16;;;;;;;69.20;43.80;;;;;;;8.33;95.57;100349.45;88460;1306;22039;-75
2022/10/15 04:08:25;;;;;;;74.30;44.60;;;;;;;8.37;95.70;100347.79;88690;1299;22058;-75
2022/10/15 04:10:34;;;;;;;69.20;44.10;;;;;;;8.41;95.74;100346.61;88454;1299;22108;-75
2022/10/15 04:12:43;;;;;;;67.80;42.90;;;;;;;8.45;96.03;100344.92;88485;1306;22083;-76
2022/10/15 04:14:51;;;;;;;70.20;41.60;;;;;;;8.49;96.00;100344.29;88658;1295;22099;-76
2022/10/15 04:17:00;;;;;;;64.60;44.50;;;;;;;8.54;96.17;100343.65;88694;1299;22039;-75
2022/10/15 04:19:09;;;;;;;72.40;44.00;;;;;;;8.58;96.23;100344.21;88467;1299;22625;-75
2022/10/15 04:21:18;;;;;;;67.30;43.10;;;;;;;8.62;96.29;100345.30;88606;1299;22655;-75
2022/10/15 04:23:27;;;;;;;66.40;43.70;;;;;;;8.67;96.36;100346.90;88453;1306;22065;-75
2022/10/15 04:25:36;;;;;;;70.40;43.80;;;;;;;8.72;96.48;100346.41;88455;1306;22340;-75
2022/10/15 04:27:44;;;;;;;65.90;42.40;;;;;;;8.76;96.59;100343.83;88692;1287;22022;-75
2022/10/15 04:29:53;;;;;;;69.30;42.10;;;;;;;8.79;96.42;100337.81;88458;1306;22074;-75
2022/10/15 04:32:02;;;;;;;63.30;40.70;;;;;;;8.83;96.24;100343.29;88674;1299;22865;-75
2022/10/15 04:34:11;;;;;;;66.20;43.40;;;;;;;8.86;96.17;100341.61;88438;1306;22206;-75
2022/10/15 04:36:20;;;;;;;70.00;43.50;;;;;;;8.88;96.11;100340.87;88678;1285;22019;-75
2022/10/15 04:38:29;;;;;;;59.00;40.70;;;;;;;8.90;96.11;100341.84;88661;1293;22105;-75
2022/10/15 04:40:40;;;;;;;63.00;40.20;;;;;;;8.91;96.00;100342.48;88457;1301;22069;-75
2022/10/15 04:42:48;;;;;;;66.80;41.20;;;;;;;8.93;95.91;100342.43;88683;1298;22045;-75
2022/10/15 04:44:57;;;;;;;65.50;41.10;;;;;;;8.93;95.87;100340.50;88678;1299;22064;-74
2022/10/15 04:47:06;;;;;;;63.10;39.50;;;;;;;8.95;96.08;100339.41;88451;1298;22077;-75
2022/10/15 04:49:14;;;;;;;59.50;39.90;;;;;;;8.97;95.97;100340.92;88736;1299;22705;-75
2022/10/15 04:51:23;;;;;;;60.20;39.60;;;;;;;8.98;95.91;100338.98;88467;1306;22096;-76
2022/10/15 04:53:32;;;;;;;59.30;39.00;;;;;;;8.99;96.06;100340.15;88727;1291;22538;-74
2022/10/15 04:55:41;;;;;;;52.50;38.00;;;;;;;9.00;95.91;100336.43;88470;1306;22106;-71
2022/10/15 04:57:50;;;;;;;58.70;39.20;;;;;;;9.02;96.02;100338.67;88710;1299;22742;-74
2022/10/15 04:59:59;;;;;;;59.60;37.50;;;;;;;9.05;96.21;100336.12;88445;1306;22038;-74
2022/10/15 05:02:08;;;;;;;61.30;38.50;;;;;;;9.08;96.25;100337.25;88398;1308;22077;-74
2022/10/15 05:04:17;;;;;;;63.20;40.60;;;;;;;9.11;96.02;100336.11;88702;1300;22098;-76
2022/10/15 05:06:26;;;;;;;62.20;39.40;;;;;;;9.14;96.20;100334.12;88453;1306;22066;-76
2022/10/15 05:08:35;;;;;;;56.90;38.50;;;;;;;9.16;96.22;100337.68;88460;1298;22070;-75
2022/10/15 05:10:44;;;;;;;68.50;39.50;;;;;;;9.18;96.25;100337.98;88446;1306;22566;-75
2022/10/15 05:12:53;;;;;;;54.20;37.30;;;;;;;9.19;96.20;100345.06;88458;1295;22876;-75
2022/10/15 05:15:01;;;;;;;53.40;36.80;;;;;;;9.20;96.09;100340.15;88695;1295;22093;-75
2022/10/15 05:17:10;;;;;;;57.60;38.70;;;;;;;9.21;95.92;100338.38;88631;1299;22654;-75
2022/10/15 05:19:19;;;;;;;59.10;38.20;;;;;;;9.23;96.11;100337.11;88454;1306;22061;-75
2022/10/15 05:21:28;;;;;;;57.80;38.90;;;;;;;9.25;96.09;100336.50;88666;1299;22746;-75
2022/10/15 05:23:37;;;;;;;57.00;39.10;;;;;;;9.27;96.10;100335.05;88492;1306;22165;-75
2022/10/15 05:25:46;;;;;;;62.30;39.90;;;;;;;9.31;95.99;100339.29;88761;1286;22126;-75
2022/10/15 05:27:56;;;;;;;59.40;37.90;;;;;;;9.33;96.07;100337.46;88503;1306;22059;-74
2022/10/15 05:30:06;;;;;;;59.10;36.40;;;;;;;9.37;96.11;100338.05;88764;1293;22020;-74
2022/10/15 05:32:15;;;;;;;57.10;38.50;;;;;;;9.40;96.05;100335.85;88624;1305;21947;-74
2022/10/15 05:34:25;;;;;;;61.90;38.10;;;;;;;9.43;95.83;100339.38;88769;1292;22582;-74
2022/10/15 05:36:35;;;;;;;52.80;37.00;;;;;;;9.47;95.78;100343.64;88497;1306;22756;-74
2022/10/15 05:38:44;;;;;;;54.70;36.40;;;;;;;9.49;95.88;100345.79;88645;1290;22531;-74
2022/10/15 05:40:53;;;;;;;56.50;38.50;;;;;;;9.52;95.74;100348.49;88639;1294;22077;-74
2022/10/15 05:43:03;;;;;;;53.90;38.10;;;;;;;9.56;95.79;100353.23;88531;1306;22074;-74
2022/10/15 05:45:13;;;;;;;50.50;36.00;;;;;;;9.60;95.74;100351.36;88492;1306;22045;-75
2022/10/15 05:47:22;;;;;;;58.40;37.10;;;;;;;9.64;95.63;100349.65;88507;1305;22038;-74
2022/10/15 05:49:31;;;;;;;60.30;37.20;;;;;;;9.68;95.60;100350.04;88497;1306;22102;-74
2022/10/15 05:51:40;;;;;;;52.70;36.50;;;;;;;9.74;95.50;100353.29;88474;1297;22511;-74
2022/10/15 05:53:51;;;;;;;50.40;36.40;;;;;;;9.80;95.74;100350.48;88501;1299;22706;-73
2022/10/15 05:56:00;;;;;;;52.50;34.10;;;;;;;9.89;95.58;100352.63;88762;1287;22687;-73
2022/10/15 05:58:09;;;;;;;49.40;34.00;;;;;;;9.97;95.40;100347.81;88406;1312;22112;-74
2022/10/15 06:00:18;;;;;;;49.10;33.40;;;;;;;10.05;95.30;100349.95;88500;1298;22066;-74
2022/10/15 06:02:27;;;;;;;50.20;35.60;;;;;;;10.19;95.11;100350.99;88749;1299;22605;-74
2022/10/15 06:04:36;;;;;;;48.60;33.20;;;;;;;10.34;95.25;100352.42;88745;1299;22068;-74
2022/10/15 06:06:47;;;;;;;46.10;33.40;;;;;;;10.45;95.15;100353.23;88498;1305;22068;-75
2022/10/15 06:08:56;;;;;;;49.80;33.00;;;;;;;10.53;95.00;100354.46;88734;1291;22768;-75
2022/10/15 06:11:07;;;;;;;47.70;33.30;;;;;;;10.61;94.64;100359.60;88772;1294;22031;-75
2022/10/15 06:13:15;;;;;;;42.90;31.40;;;;;;;10.69;94.48;100356.83;88503;1307;21998;-76
2022/10/15 06:15:27;;;;;;;45.00;33.00;;;;;;;10.81;94.23;100356.90;88505;1305;22084;-76
2022/10/15 06:17:36;;;;;;;42.50;31.60;;;;;;;10.89;93.99;100357.79;88508;1303;22118;-75
2022/10/15 06:19:45;;;;;;;43.40;31.70;;;;;;;10.94;93.57;100356.39;88506;1306;22216;-75
2022/10/15 06:21:53;;;;;;;42.50;31.30;;;;;;;10.97;93.23;100354.16;88737;1300;22036;-76
2022/10/15 06:24:02;;;;;;;41.90;31.90;;;;;;;11.00;92.68;100351.92;88496;1297;22102;-76
2022/10/15 06:26:11;;;;;;;41.20;30.60;;;;;;;11.05;92.66;100355.22;88635;1292;22865;-76
2022/10/15 06:28:20;;;;;;;45.60;30.20;;;;;;;11.11;92.22;100357.08;88495;1298;22218;-75
2022/10/15 06:30:29;;;;;;;43.30;30.90;;;;;;;11.15;91.97;100359.38;88766;1294;22046;-76
2022/10/15 06:32:38;;;;;;;46.20;31.60;;;;;;;11.20;91.92;100361.45;88773;1293;22707;-75
2022/10/15 06:34:50;;;;;;;38.30;29.60;;;;;;;11.25;91.62;100365.79;88765;1294;22021;-75
2022/10/15 06:36:59;;;;;;;41.50;29.30;;;;;;;11.29;91.47;100363.33;88492;1306;22050;-75
2022/10/15 06:39:08;;;;;;;44.90;29.60;;;;;;;11.31;91.06;100362.04;88759;1294;22067;-75
2022/10/15 06:41:16;;;;;;;41.60;29.40;;;;;;;11.30;90.75;100366.61;88484;1307;22029;-75
2022/10/15 06:43:25;;;;;;;40.40;28.60;;;;;;;11.28;90.49;100364.59;88757;1291;22044;-75
2022/10/15 06:45:35;;;;;;;42.10;30.60;;;;;;;11.25;90.21;100367.00;88404;1305;22875;-75
2022/10/15 06:47:44;;;;;;;45.30;31.20;;;;;;;11.23;90.22;100368.13;88504;1297;22087;-74
2022/10/15 06:49:53;;;;;;;43.10;30.60;;;;;;;11.23;90.16;100373.02;88473;1297;22068;-74
2022/10/15 06:52:03;;;;;;;38.70;28.60;;;;;;;11.26;90.13;100376.21;88476;1305;22117;-74
2022/10/15 06:54:12;;;;;;;39.50;28.90;;;;;;;11.30;90.32;100374.98;88747;1292;22021;-74
2022/10/15 06:56:21;;;;;;;42.70;31.60;;;;;;;11.37;90.43;100379.92;88780;1301;22025;-74
2022/10/15 06:58:30;;;;;;;47.60;30.70;;;;;;;11.45;90.40;100375.79;88758;1302;22058;-74
2022/10/15 07:00:38;;;;;;;46.70;29.80;;;;;;;11.53;90.14;100377.89;88750;1299;22584;-75
2022/10/15 07:02:48;;;;;;;45.40;31.60;;;;;;;11.64;89.97;100374.09;88508;1304;22074;-75
2022/10/15 07:04:57;;;;;;;44.20;31.70;;;;;;;11.81;90.48;100373.23;88617;1305;22147;-75
2022/10/15 07:07:06;;;;;;;56.00;37.60;;;;;;;11.94;90.46;100373.40;88510;1312;22080;-75
2022/10/15 07:09:15;;;;;;;48.20;32.50;;;;;;;12.04;90.22;100372.60;88765;1294;22028;-75
2022/10/15 07:11:24;;;;;;;54.50;36.80;;;;;;;12.14;89.93;100368.48;88505;1305;22040;-75
2022/10/15 07:13:33;;;;;;;49.90;32.30;;;;;;;12.23;89.57;100367.88;88485;1297;22064;-74
2022/10/15 07:15:43;;;;;;;46.80;32.00;;;;;;;12.31;89.20;100362.98;88761;1293;22027;-74
2022/10/15 07:17:55;;;;;;;37.80;29.90;;;;;;;12.41;88.94;100368.31;88755;1291;22034;-74
2022/10/15 07:20:04;;;;;;;38.20;28.30;;;;;;;12.52;88.75;100367.61;88771;1300;22083;-74
2022/10/15 07:22:13;;;;;;;40.20;29.00;;;;;;;12.71;88.74;100369.54;88761;1292;22046;-74
2022/10/15 07:24:22;;;;;;;36.70;28.00;;;;;;;12.99;88.80;100370.11;88758;1300;22649;-74
2022/10/15 07:26:30;;;;;;;39.00;26.60;;;;;;;13.37;88.86;100367.94;88481;1307;22337;-75
2022/10/15 07:28:39;;;;;;;32.60;25.50;;;;;;;13.75;86.64;100368.31;88743;1299;22578;-77
2022/10/15 07:30:48;;;;;;;39.80;27.20;;;;;;;13.85;85.78;100372.92;88504;1301;22646;-75
2022/10/15 07:32:57;;;;;;;33.70;25.00;;;;;;;13.87;84.94;100369.11;88494;1306;22064;-76
2022/10/15 07:35:07;;;;;;;31.20;24.40;;;;;;;13.85;84.29;100363.40;88514;1306;22021;-76
2022/10/15 07:37:15;;;;;;;31.50;24.40;;;;;;;13.86;83.64;100367.73;88486;1306;22267;-76
2022/10/15 07:39:24;;;;;;;31.20;24.60;;;;;;;13.97;83.59;100364.55;88642;1300;22189;-76
2022/10/15 07:41:33;;;;;;;35.30;24.60;;;;;;;14.20;83.38;100358.95;88734;1302;22026;-76
2022/10/15 07:43:42;;;;;;;33.10;24.20;;;;;;;14.24;81.96;100356.82;88765;1293;22723;-76
2022/10/15 07:45:52;;;;;;;29.10;23.20;;;;;;;14.27;81.52;100355.79;88770;1287;22021;-76
2022/10/15 07:48:00;;;;;;;38.70;25.20;;;;;;;14.33;81.78;100355.27;88486;1305;22040;-74
2022/10/15 07:50:10;;;;;;;30.10;23.40;;;;;;;14.38;80.88;100359.73;88152;1307;372080;-76
2022/10/15 07:52:17;;;;;;;;;;;;;;;14.43;80.53;100359.80;88492;1304;22150;-75
2022/10/15 07:54:26;;;;;;;36.60;27.00;;;;;;;14.45;80.59;100359.38;88766;1300;22788;-75
2022/10/15 07:56:34;;;;;;;33.80;24.00;;;;;;;14.52;80.57;100364.82;88494;1299;22621;-75
2022/10/15 07:58:50;;;;;;;32.90;23.00;;;;;;;14.61;79.67;100360.84;88599;1298;22118;-75
2022/10/15 08:01:01;;;;;;;31.40;24.60;;;;;;;14.69;80.02;100360.35;88421;1306;22075;-75
2022/10/15 08:03:09;;;;;;;30.40;23.30;;;;;;;14.91;79.71;100353.86;88505;1306;22033;-75
2022/10/15 08:05:18;;;;;;;32.30;22.80;;;;;;;15.24;78.77;100355.71;88520;1305;22067;-75
2022/10/15 08:07:27;;;;;;;29.50;23.20;;;;;;;15.53;77.78;100350.31;88518;1306;22066;-75
2022/10/15 08:09:36;;;;;;;28.60;22.60;;;;;;;15.87;77.09;100352.33;88751;1300;22018;-75
2022/10/15 08:11:45;;;;;;;32.00;24.30;;;;;;;16.14;76.21;100347.88;88747;1283;22032;-75
2022/10/15 08:13:55;;;;;;;29.00;23.70;;;;;;;16.31;75.28;100346.29;88760;1278;22045;-75
2022/10/15 08:16:02;;;;;;;;;;;;;;;16.42;73.70;100350.20;88777;1299;22250;-75
2022/10/15 08:18:11;;;;;;;29.40;22.10;;;;;;;16.41;73.52;100353.06;88633;1294;22104;-75
2022/10/15 08:20:20;;;;;;;25.60;21.40;;;;;;;16.43;72.79;100352.74;88470;1293;22052;-75
2022/10/15 08:22:29;;;;;;;30.00;23.90;;;;;;;16.42;72.82;100352.83;88594;1299;22082;-75
2022/10/15 08:24:41;;;;;;;28.80;22.70;;;;;;;16.36;71.81;100355.50;88626;1301;22800;-75
2022/10/15 08:26:52;;;;;;;32.20;23.50;;;;;;;16.36;72.96;100356.41;88495;1305;22062;-75
2022/10/15 08:29:01;;;;;;;33.20;23.70;;;;;;;16.39;72.49;100357.42;88778;1288;22783;-76
2022/10/15 08:31:09;;;;;;;28.60;22.40;;;;;;;16.43;72.52;100352.07;88611;1298;22727;-76
2022/10/15 08:33:18;;;;;;;30.10;23.60;;;;;;;16.51;72.09;100351.39;88775;1294;22072;-75
2022/10/15 08:35:27;;;;;;;28.50;22.60;;;;;;;16.56;72.19;100345.64;88741;1293;22039;-75
2022/10/15 08:37:36;;;;;;;26.70;22.10;;;;;;;16.62;72.17;100344.20;88640;1292;22088;-75
2022/10/15 08:39:46;;;;;;;28.20;22.70;;;;;;;16.69;71.49;100346.19;88772;1299;22029;-75
2022/10/15 08:41:55;;;;;;;30.30;21.80;;;;;;;16.79;71.24;100342.08;88499;1305;22755;-74
2022/10/15 08:44:04;;;;;;;29.90;22.30;;;;;;;16.92;71.48;100340.69;88598;1299;22258;-73
2022/10/15 08:46:16;;;;;;;22.90;20.30;;;;;;;16.98;71.27;100336.78;88774;1285;22122;-74
2022/10/15 08:48:30;;;;;;;30.90;22.50;;;;;;;17.05;70.37;100334.40;88771;1290;22059;-70
2022/10/15 08:50:43;;;;;;;26.50;22.40;;;;;;;17.12;69.83;100335.50;88771;1299;22175;-72
2022/10/15 08:52:53;;;;;;;26.60;21.80;;;;;;;17.20;69.33;100332.36;88492;1305;22081;-74
2022/10/15 08:55:02;;;;;;;28.90;22.60;;;;;;;17.29;70.26;100327.34;88477;1306;22630;-74
2022/10/15 08:57:20;;;;;;;29.10;20.70;;;;;;;17.47;69.61;100325.92;88765;1293;22067;-74
2022/10/15 08:59:35;;;;;;;28.00;21.40;;;;;;;17.56;69.16;100325.55;88770;1288;22053;-75
2022/10/15 09:01:48;;;;;;;29.80;21.40;;;;;;;17.62;68.93;100325.45;88753;1286;22020;-75
2022/10/15 09:04:11;;;;;;;28.30;20.60;;;;;;;17.88;68.78;100325.65;88762;1295;22084;-73
2022/10/15 09:06:21;;;;;;;24.10;19.40;;;;;;;18.29;67.74;100326.35;88774;1294;22085;-73
2022/10/15 09:08:30;;;;;;;;;;;;;;;18.72;67.13;100326.10;88780;1287;22271;-73
2022/10/15 09:10:43;;;;;;;25.90;20.10;;;;;;;19.02;65.39;100325.67;88613;1299;22660;-73
2022/10/15 09:12:55;;;;;;;24.90;20.60;;;;;;;19.16;65.19;100330.67;88782;1288;22018;-74
2022/10/15 09:15:05;;;;;;;24.70;21.50;;;;;;;19.48;64.57;100325.56;88500;1306;22054;-74
2022/10/15 09:17:21;;;;;;;23.20;19.50;;;;;;;19.93;64.03;100327.58;88796;1287;22025;-73
2022/10/15 09:19:30;;;;;;;23.10;19.00;;;;;;;20.31;62.63;100330.11;88495;1306;22613;-73
2022/10/15 09:21:39;;;;;;;25.90;20.30;;;;;;;20.40;61.30;100330.96;88756;1300;22120;-75
2022/10/15 09:23:48;;;;;;;22.20;18.60;;;;;;;20.26;59.36;100334.11;88509;1298;22081;-73
2022/10/15 09:26:06;;;;;;;22.60;19.90;;;;;;;20.00;58.77;100331.11;88478;1301;22079;-74
2022/10/15 09:28:28;;;;;;;23.70;18.70;;;;;;;19.90;60.25;100331.93;88417;1302;22082;-74
2022/10/15 09:30:37;;;;;;;;;;;;;;;19.83;59.60;100332.33;88497;1298;22176;-74
2022/10/15 09:32:48;;;;;;;26.00;19.70;;;;;;;19.60;60.24;100332.98;88515;1306;22716;-73
2022/10/15 09:35:00;;;;;;;22.30;18.70;;;;;;;19.41;60.47;100336.16;88761;1294;22064;-74
2022/10/15 09:37:14;;;;;;;29.40;20.50;;;;;;;19.21;59.93;100337.15;88767;1297;22719;-74
2022/10/15 09:39:36;;;;;;;28.70;20.00;;;;;;;19.01;60.24;100333.84;88501;1306;22729;-73
2022/10/15 09:41:53;;;;;;;25.20;18.40;;;;;;;18.86;61.10;100335.51;88484;1302;22069;-73
2022/10/15 09:44:02;;;;;;;25.90;19.70;;;;;;;18.75;61.20;100335.61;88491;1306;22040;-73
2022/10/15 09:46:11;;;;;;;26.60;20.30;;;;;;;18.65;61.33;100339.11;88758;1296;21764;-74
2022/10/15 09:48:21;;;;;;;26.30;19.30;;;;;;;18.54;61.14;100334.23;88757;1298;22026;-74
2022/10/15 09:50:36;;;;;;;27.30;19.70;;;;;;;18.41;61.56;100331.83;88759;1299;22484;-74
2022/10/15 09:53:00;;;;;;;25.90;19.10;;;;;;;18.33;61.91;100336.46;88482;1306;22643;-73
2022/10/15 09:55:15;;;;;;;27.10;20.50;;;;;;;18.26;62.50;100333.91;88485;1305;22085;-74
2022/10/15 09:57:24;;;;;;;27.70;20.40;;;;;;;18.23;62.71;100331.83;88763;1286;22019;-74